Time,TemperatureF,DewpointF,PressureIn,WindDirection,WindDirectionDegrees,WindSpeedMPH,WindSpeedGustMPH,Humidity,HourlyPrecipIn,Conditions,Clouds,dailyrainin,SolarRadiationWatts/m^2,SoftwareType,DateUTC
2013-01-19 00:08:00,25.3,10.0,30.38,SW,215,4.0,15.0,52,0.00,,,0.00,0,weatherlink.com 1.10,2013-01-19 05:08:00,
2013-01-19 00:23:00,25.3,10.0,30.37,SW,214,7.0,12.0,53,0.00,,,0.00,0,weatherlink.com 1.10,2013-01-19 05:23:00,
2013-01-19 00:38:00,25.4,10.0,30.36,SSW,212,10.0,13.0,53,0.00,,,0.00,0,weatherlink.com 1.10,2013-01-19 05:38:00,
2013-01-19 00:53:00,25.7,11.0,30.36,SW,217,7.0,12.0,54,0.00,,,0.00,0,weatherlink.com 1.10,2013-01-19 05:53:00,
2013-01-19 01:08:00,25.9,11.0,30.36,SW,225,6.0,13.0,54,0.00,,,0.00,0,weatherlink.com 1.10,2013-01-19 06:08:00,
2013-01-19 01:23:00,26.4,13.0,30.35,SW,230,11.0,16.0,56,0.00,,,0.00,0,weatherlink.com 1.10,2013-01-19 06:23:00,
2013-01-19 01:38:00,26.7,14.0,30.34,SW,224,8.0,16.0,58,0.00,,,0.00,0,weatherlink.com 1.10,2013-01-19 06:38:00,
2013-01-19 01:53:00,27.1,14.0,30.34,South,190,2.0,17.0,58,0.00,,,0.00,0,weatherlink.com 1.10,2013-01-19 06:53:00,
2013-01-19 02:08:00,27.1,14.0,30.34,SW,221,10.0,18.0,59,0.00,,,0.00,0,weatherlink.com 1.10,2013-01-19 07:08:00,
2013-01-19 02:23:00,27.4,15.0,30.33,SSW,205,9.0,17.0,59,0.00,,,0.00,0,weatherlink.com 1.10,2013-01-19 07:23:00,
2013-01-19 02:38:00,27.9,15.0,30.32,WSW,238,14.0,18.0,59,0.00,,,0.00,0,weatherlink.com 1.10,2013-01-19 07:38:00,
2013-01-19 02:53:00,28.4,16.0,30.30,SSW,192,14.0,18.0,60,0.00,,,0.00,0,weatherlink.com 1.10,2013-01-19 07:53:00,
2013-01-19 03:08:00,28.8,17.0,30.29,SSW,211,15.0,21.0,61,0.00,,,0.00,0,weatherlink.com 1.10,2013-01-19 08:08:00,
2013-01-19 03:23:00,29.0,17.0,30.28,SW,223,13.0,19.0,61,0.00,,,0.00,0,weatherlink.com 1.10,2013-01-19 08:23:00,
2013-01-19 03:38:00,29.0,17.0,30.29,SW,232,6.0,17.0,62,0.00,,,0.00,0,weatherlink.com 1.10,2013-01-19 08:38:00,
2013-01-19 03:53:00,29.3,18.0,30.27,SW,235,6.0,18.0,64,0.00,,,0.00,0,weatherlink.com 1.10,2013-01-19 08:53:00,
2013-01-19 04:08:00,29.8,19.0,30.27,SW,232,11.0,22.0,64,0.00,,,0.00,0,weatherlink.com 1.10,2013-01-19 09:08:00,
2013-01-19 04:23:00,30.1,20.0,30.26,SW,219,17.0,24.0,65,0.00,,,0.00,0,weatherlink.com 1.10,2013-01-19 09:23:00,
2013-01-19 04:38:00,30.1,20.0,30.24,WSW,248,12.0,22.0,66,0.00,,,0.00,0,weatherlink.com 1.10,2013-01-19 09:38:00,
2013-01-19 04:53:00,30.7,21.0,30.24,SW,216,19.0,24.0,66,0.00,,,0.00,0,weatherlink.com 1.10,2013-01-19 09:53:00,
2013-01-19 05:09:00,31.2,21.0,30.22,WSW,255,19.0,27.0,67,0.00,,,0.00,0,weatherlink.com 1.10,2013-01-19 10:09:00,
2013-01-19 05:24:00,31.8,22.0,30.22,WSW,252,11.0,20.0,68,0.00,,,0.00,0,weatherlink.com 1.10,2013-01-19 10:24:00,
2013-01-19 05:39:00,32.1,23.0,30.22,WSW,248,14.0,22.0,68,0.00,,,0.00,0,weatherlink.com 1.10,2013-01-19 10:39:00,
2013-01-19 05:54:00,32.5,23.0,30.21,SW,229,17.0,24.0,68,0.00,,,0.00,0,weatherlink.com 1.10,2013-01-19 10:54:00,
2013-01-19 06:09:00,32.8,24.0,30.20,WSW,237,6.0,20.0,69,0.00,,,0.00,0,weatherlink.com 1.10,2013-01-19 11:09:00,
2013-01-19 07:54:00,34.6,26.0,30.17,SW,228,10.0,24.0,70,0.00,,,0.00,37,weatherlink.com 1.10,2013-01-19 12:54:00,
2013-01-19 08:09:00,35.2,26.0,30.17,WSW,242,14.0,22.0,69,0.00,,,0.00,42,weatherlink.com 1.10,2013-01-19 13:09:00,
2013-01-19 08:24:00,35.7,26.0,30.17,West,259,16.0,27.0,69,0.00,,,0.00,35,weatherlink.com 1.10,2013-01-19 13:24:00,
2013-01-19 08:39:00,36.2,27.0,30.16,WSW,256,13.0,27.0,68,0.00,,,0.00,39,weatherlink.com 1.10,2013-01-19 13:39:00,
2013-01-19 08:54:00,36.9,27.0,30.16,West,269,14.0,32.0,68,0.00,,,0.00,47,weatherlink.com 1.10,2013-01-19 13:54:00,
2013-01-19 09:09:00,37.9,28.0,30.17,WSW,247,22.0,31.0,67,0.00,,,0.00,98,weatherlink.com 1.10,2013-01-19 14:09:00,
2013-01-19 09:24:00,39.0,28.0,30.16,WSW,245,22.0,30.0,66,0.00,,,0.00,334,weatherlink.com 1.10,2013-01-19 14:24:00,
2013-01-19 09:39:00,40.3,29.0,30.15,SW,234,21.0,37.0,64,0.00,,,0.00,121,weatherlink.com 1.10,2013-01-19 14:39:00,
2013-01-19 09:54:00,41.2,30.0,30.14,WSW,257,24.0,31.0,64,0.01,,,0.01,413,weatherlink.com 1.10,2013-01-19 14:54:00,
2013-01-19 10:09:00,41.8,29.0,30.13,West,267,16.0,36.0,61,0.01,,,0.01,311,weatherlink.com 1.10,2013-01-19 15:09:00,
2013-01-19 10:24:00,42.9,30.0,30.13,West,269,19.0,31.0,60,0.01,,,0.01,221,weatherlink.com 1.10,2013-01-19 15:24:00,
2013-01-19 10:39:00,42.7,29.0,30.12,West,275,20.0,32.0,58,0.01,,,0.01,125,weatherlink.com 1.10,2013-01-19 15:39:00,
2013-01-19 10:54:00,42.9,28.0,30.10,WSW,238,17.0,34.0,57,0.01,,,0.02,144,weatherlink.com 1.10,2013-01-19 15:54:00,
2013-01-19 11:10:00,43.2,28.0,30.09,West,266,10.0,26.0,56,0.01,,,0.02,128,weatherlink.com 1.10,2013-01-19 16:10:00,
2013-01-19 11:25:00,43.6,29.0,30.07,West,263,10.0,28.0,56,0.01,,,0.02,127,weatherlink.com 1.10,2013-01-19 16:25:00,
2013-01-19 11:40:00,43.9,28.0,30.06,WSW,240,20.0,25.0,55,0.02,,,0.03,121,weatherlink.com 1.10,2013-01-19 16:40:00,
2013-01-19 11:55:00,44.5,29.0,30.05,WSW,242,16.0,28.0,55,0.01,,,0.03,149,weatherlink.com 1.10,2013-01-19 16:55:00,
2013-01-19 12:10:00,45.0,29.0,30.04,WSW,252,19.0,28.0,53,0.01,,,0.03,171,weatherlink.com 1.10,2013-01-19 17:10:00,
2013-01-19 12:25:00,45.6,29.0,30.03,SW,235,9.0,27.0,52,0.01,,,0.03,142,weatherlink.com 1.10,2013-01-19 17:25:00,
2013-01-19 12:40:00,46.7,29.0,30.02,WSW,244,12.0,30.0,51,0.00,,,0.03,156,weatherlink.com 1.10,2013-01-19 17:40:00,
2013-01-19 12:55:00,46.9,29.0,30.01,SW,233,17.0,29.0,50,0.01,,,0.04,135,weatherlink.com 1.10,2013-01-19 17:55:00,
2013-01-19 13:10:00,47.6,29.0,30.01,SW,233,13.0,29.0,49,0.01,,,0.04,74,weatherlink.com 1.10,2013-01-19 18:10:00,
2013-01-19 13:25:00,47.8,29.0,30.00,SSW,210,24.0,30.0,49,0.01,,,0.04,56,weatherlink.com 1.10,2013-01-19 18:25:00,
2013-01-19 13:40:00,48.1,30.0,30.00,WSW,248,18.0,25.0,49,0.01,,,0.04,39,weatherlink.com 1.10,2013-01-19 18:40:00,
2013-01-19 13:55:00,47.8,29.0,30.00,WSW,238,15.0,29.0,48,0.00,,,0.04,37,weatherlink.com 1.10,2013-01-19 18:55:00,
2013-01-19 14:10:00,48.1,29.0,29.99,SW,221,22.0,23.0,47,0.00,,,0.04,32,weatherlink.com 1.10,2013-01-19 19:10:00,
2013-01-19 14:25:00,48.4,29.0,29.98,WSW,238,14.0,24.0,48,0.00,,,0.04,33,weatherlink.com 1.10,2013-01-19 19:25:00,
2013-01-19 14:40:00,48.5,28.0,29.98,SW,232,19.0,26.0,46,0.00,,,0.04,30,weatherlink.com 1.10,2013-01-19 19:40:00,
2013-01-19 15:10:00,48.5,27.0,29.98,WSW,248,14.0,28.0,44,0.01,,,0.05,25,weatherlink.com 1.10,2013-01-19 20:10:00,
2013-01-19 15:25:00,48.1,28.0,29.97,WSW,255,22.0,32.0,46,0.01,,,0.05,23,weatherlink.com 1.10,2013-01-19 20:25:00,
2013-01-19 15:40:00,47.5,27.0,29.98,WSW,248,8.0,26.0,46,0.01,,,0.05,21,weatherlink.com 1.10,2013-01-19 20:40:00,
2013-01-19 15:55:00,47.3,28.0,29.98,WSW,240,13.0,28.0,47,0.00,,,0.05,21,weatherlink.com 1.10,2013-01-19 20:55:00,
2013-01-19 16:10:00,46.7,27.0,29.99,WSW,252,9.0,25.0,47,0.00,,,0.05,14,weatherlink.com 1.10,2013-01-19 21:10:00,
2013-01-19 16:25:00,46.3,27.0,29.99,WSW,248,15.0,18.0,48,0.00,,,0.05,7,weatherlink.com 1.10,2013-01-19 21:25:00,
2013-01-19 16:40:00,45.8,27.0,29.99,WSW,252,13.0,24.0,49,0.00,,,0.05,0,weatherlink.com 1.10,2013-01-19 21:40:00,
2013-01-19 16:55:00,45.3,27.0,29.99,WSW,251,13.0,22.0,50,0.00,,,0.05,0,weatherlink.com 1.10,2013-01-19 21:55:00,
2013-01-19 17:25:00,44.3,28.0,29.99,West,261,5.0,17.0,53,0.00,,,0.05,0,weatherlink.com 1.10,2013-01-19 22:25:00,
2013-01-19 17:40:00,43.6,28.0,30.00,West,265,8.0,14.0,55,0.00,,,0.05,0,weatherlink.com 1.10,2013-01-19 22:40:00,
2013-01-19 17:55:00,43.4,28.0,29.99,West,262,3.0,13.0,56,0.00,,,0.05,0,weatherlink.com 1.10,2013-01-19 22:55:00,
2013-01-19 18:10:00,43.2,29.0,30.00,WSW,248,8.0,13.0,57,0.00,,,0.05,0,weatherlink.com 1.10,2013-01-19 23:10:00,
2013-01-19 18:25:00,42.8,29.0,29.99,WSW,246,4.0,10.0,59,0.00,,,0.05,0,weatherlink.com 1.10,2013-01-19 23:25:00,
2013-01-19 18:40:00,42.1,30.0,30.00,WSW,240,3.0,9.0,62,0.00,,,0.05,0,weatherlink.com 1.10,2013-01-19 23:40:00,
2013-01-19 18:55:00,42.0,31.0,30.00,SW,231,1.0,13.0,66,0.00,,,0.05,0,weatherlink.com 1.10,2013-01-19 23:55:00,
2013-01-19 19:10:00,41.7,31.0,29.99,SW,232,2.0,8.0,66,0.00,,,0.05,0,weatherlink.com 1.10,2013-01-20 00:10:00,
2013-01-19 19:25:00,41.9,32.0,29.99,SW,216,4.0,12.0,67,0.00,,,0.05,0,weatherlink.com 1.10,2013-01-20 00:25:00,
2013-01-19 19:40:00,41.7,32.0,29.99,WSW,247,2.0,12.0,68,0.00,,,0.05,0,weatherlink.com 1.10,2013-01-20 00:40:00,
2013-01-19 19:55:00,41.6,32.0,29.98,WSW,240,9.0,13.0,69,0.00,,,0.05,0,weatherlink.com 1.10,2013-01-20 00:55:00,
2013-01-19 20:10:00,41.4,32.0,29.98,SW,215,10.0,12.0,69,0.00,,,0.05,0,weatherlink.com 1.10,2013-01-20 01:10:00,
2013-01-19 20:25:00,41.3,32.0,29.98,SW,226,4.0,12.0,70,0.00,,,0.05,0,weatherlink.com 1.10,2013-01-20 01:25:00,
2013-01-19 20:40:00,41.1,33.0,29.98,WSW,238,2.0,10.0,72,0.00,,,0.05,0,weatherlink.com 1.10,2013-01-20 01:40:00,
2013-01-19 21:10:00,40.7,33.0,29.96,WSW,246,3.0,11.0,73,0.00,,,0.05,0,weatherlink.com 1.10,2013-01-20 02:10:00,
2013-01-19 21:25:00,40.6,33.0,29.95,WSW,242,3.0,10.0,74,0.00,,,0.05,0,weatherlink.com 1.10,2013-01-20 02:25:00,
2013-01-19 21:40:00,40.8,33.0,29.95,SW,229,3.0,11.0,74,0.00,,,0.05,0,weatherlink.com 1.10,2013-01-20 02:40:00,
2013-01-19 21:55:00,40.8,33.0,29.94,SSW,213,8.0,10.0,75,0.00,,,0.05,0,weatherlink.com 1.10,2013-01-20 02:55:00,
2013-01-19 22:11:00,40.4,33.0,29.93,SW,227,4.0,11.0,76,0.00,,,0.05,0,weatherlink.com 1.10,2013-01-20 03:11:00,
2013-01-19 22:26:00,40.2,34.0,29.93,SW,223,4.0,14.0,77,0.00,,,0.05,0,weatherlink.com 1.10,2013-01-20 03:26:00,
2013-01-19 22:41:00,40.2,34.0,29.92,SW,232,2.0,11.0,77,0.00,,,0.05,0,weatherlink.com 1.10,2013-01-20 03:41:00,
2013-01-19 22:56:00,40.3,34.0,29.92,SW,226,3.0,12.0,77,0.00,,,0.05,0,weatherlink.com 1.10,2013-01-20 03:56:00,
2013-01-19 23:11:00,40.8,34.0,29.91,WSW,248,9.0,15.0,78,0.00,,,0.05,0,weatherlink.com 1.10,2013-01-20 04:11:00,
2013-01-19 23:26:00,41.3,35.0,29.90,SW,224,7.0,15.0,77,0.00,,,0.05,0,weatherlink.com 1.10,2013-01-20 04:26:00,
2013-01-19 23:41:00,41.6,35.0,29.88,SW,221,3.0,14.0,76,0.00,,,0.05,0,weatherlink.com 1.10,2013-01-20 04:41:00,